Time;durP1;ratioP1;P1;durP2;ratioP2;P2;SDS_P1;SDS_P2;PMS_P1;PMS_P2;Temp;Humidity;BMP_temperature;BMP_pressure;BME280_temperature;BME280_humidity;BME280_pressure;Samples;Min_cycle;Max_cycle;Signal;HPM_P1;HPM_P2
2022/01/10 00:00:29;;;;;;;7.53;3.95;;;9.30;88.10;;;;;;5033952;28;20068;-77
2022/01/10 00:02:56;;;;;;;8.60;4.68;;;9.30;87.80;;;;;;5030028;28;20029;-77
2022/01/10 00:05:22;;;;;;;9.15;4.47;;;9.30;87.90;;;;;;5035166;28;20453;-77
2022/01/10 00:07:49;;;;;;;6.75;4.07;;;9.30;87.80;;;;;;5033493;28;20059;-77
2022/01/10 00:10:15;;;;;;;7.82;4.05;;;9.30;87.90;;;;;;5030766;28;20044;-77
2022/01/10 00:12:41;;;;;;;5.90;3.67;;;9.30;87.80;;;;;;5015652;28;20033;-77
2022/01/10 00:15:09;;;;;;;7.10;4.28;;;9.40;87.80;;;;;;5014149;28;20030;-77
2022/01/10 00:17:38;;;;;;;3.50;3.08;;;9.40;87.80;;;;;;5028843;28;20028;-77
2022/01/10 00:20:10;;;;;;;13.57;7.07;;;9.40;87.80;;;;;;5035039;28;20025;-77
2022/01/10 00:22:36;;;;;;;7.28;5.15;;;9.40;87.50;;;;;;5034958;28;20017;-77
2022/01/10 00:25:04;;;;;;;12.13;4.35;;;9.50;87.70;;;;;;5048905;28;20519;-77
2022/01/10 00:27:30;;;;;;;3.83;2.83;;;9.50;87.40;;;;;;5034934;28;20581;-77
2022/01/10 00:29:55;;;;;;;6.43;4.25;;;9.50;87.60;;;;;;5034693;28;20029;-77
2022/01/10 00:32:23;;;;;;;9.85;4.85;;;9.50;87.60;;;;;;5019476;28;20033;-77
2022/01/10 00:34:49;;;;;;;5.13;4.28;;;9.50;87.40;;;;;;5015165;28;20110;-77
2022/01/10 00:37:15;;;;;;;8.05;5.07;;;9.50;87.50;;;;;;5015108;28;20114;-77
2022/01/10 00:39:41;;;;;;;13.55;7.05;;;9.50;87.30;;;;;;5015151;28;20050;-77
2022/01/10 00:42:06;;;;;;;17.73;8.13;;;9.50;87.30;;;;;;5015188;28;20025;-77
2022/01/10 00:44:37;;;;;;;12.77;6.05;;;9.50;87.30;;;;;;5013888;28;20121;-77
2022/01/10 00:47:03;;;;;;;12.63;5.75;;;9.40;87.40;;;;;;5031823;28;20090;-77
2022/01/10 00:49:29;;;;;;;11.00;6.40;;;9.40;87.30;;;;;;5035107;28;20388;-77
2022/01/10 00:51:55;;;;;;;8.02;4.68;;;9.50;87.40;;;;;;5034682;28;20029;-77
2022/01/10 00:54:20;;;;;;;6.38;4.57;;;9.50;87.30;;;;;;5033950;28;20033;-77
2022/01/10 00:56:46;;;;;;;10.82;3.35;;;9.40;87.40;;;;;;5034590;28;20022;-76
2022/01/10 00:59:12;;;;;;;7.47;2.95;;;9.40;87.50;;;;;;5035040;28;20025;-77
2022/01/10 01:01:37;;;;;;;9.18;3.72;;;9.40;87.70;;;;;;5033973;28;20080;-77
2022/01/10 01:04:03;;;;;;;5.90;3.72;;;9.30;87.60;;;;;;5019865;28;20033;-77
2022/01/10 01:06:29;;;;;;;9.00;3.33;;;9.40;87.70;;;;;;5015058;28;20030;-77
2022/01/10 01:09:00;;;;;;;6.05;2.40;;;9.40;87.70;;;;;;5036810;28;20032;-77
2022/01/10 01:14:23;;;;;;;4.90;2.92;;;9.40;87.60;;;;;;5057763;28;20476;-76
2022/01/10 01:16:58;;;;;;;6.50;3.28;;;9.40;87.60;;;;;;5053119;28;20033;-77
2022/01/10 01:24:34;;;;;;;12.65;4.72;;;9.30;87.60;;;;;;5038378;28;20074;-77
2022/01/10 01:27:00;;;;;;;9.77;3.88;;;9.40;87.70;;;;;;5033596;28;20041;-77
2022/01/10 01:29:28;;;;;;;10.73;4.70;;;9.50;87.60;;;;;;5021789;28;20034;-76
2022/01/10 01:31:55;;;;;;;10.15;4.28;;;9.50;87.60;;;;;;5018282;28;20112;-77
2022/01/10 01:34:23;;;;;;;9.02;5.05;;;9.50;87.50;;;;;;5017341;28;20029;-77
2022/01/10 01:36:52;;;;;;;9.52;4.20;;;9.50;87.40;;;;;;5032559;28;20192;-77
2022/01/10 01:39:22;;;;;;;7.72;4.25;;;9.40;87.50;;;;;;5053088;28;20487;-77
2022/01/10 01:42:01;;;;;;;8.83;3.90;;;9.40;87.70;;;;;;5038053;28;20497;-77
2022/01/10 01:44:27;;;;;;;10.35;4.93;;;9.30;87.80;;;;;;5036958;28;20128;-77
2022/01/10 01:46:52;;;;;;;8.10;3.88;;;9.30;87.70;;;;;;5053089;28;20025;-77
2022/01/10 01:49:18;;;;;;;8.80;4.75;;;9.20;87.80;;;;;;5037783;28;20034;-77
2022/01/10 01:51:44;;;;;;;6.43;3.50;;;9.30;88.20;;;;;;5036964;28;20033;-76
2022/01/10 01:54:12;;;;;;;8.18;4.47;;;9.20;88.10;;;;;;5036440;28;20119;-77
2022/01/10 01:56:39;;;;;;;9.02;4.68;;;9.20;88.10;;;;;;5037750;28;20022;-77
2022/01/10 01:59:06;;;;;;;13.25;5.03;;;9.20;88.30;;;;;;5035417;28;20026;-77
2022/01/10 02:01:32;;;;;;;10.77;5.35;;;9.20;88.10;;;;;;5037519;28;20033;-77
2022/01/10 02:03:58;;;;;;;10.60;4.18;;;9.20;88.30;;;;;;5052885;28;20022;-77
2022/01/10 02:06:23;;;;;;;8.60;4.65;;;9.30;88.30;;;;;;5047608;28;20056;-77
2022/01/10 02:08:50;;;;;;;12.50;5.57;;;9.30;88.10;;;;;;5042527;28;20029;-77
2022/01/10 02:11:19;;;;;;;11.40;5.53;;;9.40;88.20;;;;;;5057246;28;20395;-77
2022/01/10 02:13:44;;;;;;;10.75;5.30;;;9.40;87.90;;;;;;5041568;28;20036;-77
2022/01/10 02:16:16;;;;;;;9.98;5.18;;;9.40;87.90;;;;;;5035890;28;20075;-77
2022/01/10 02:18:42;;;;;;;11.13;5.05;;;9.40;87.90;;;;;;5052695;28;20033;-77
2022/01/10 02:21:09;;;;;;;12.82;5.95;;;9.40;87.80;;;;;;5037399;28;20049;-77
2022/01/10 02:23:36;;;;;;;15.70;6.68;;;9.40;87.80;;;;;;5036858;28;20388;-77
2022/01/10 02:26:02;;;;;;;15.77;5.57;;;9.40;87.60;;;;;;5033506;28;20053;-77
2022/01/10 02:28:32;;;;;;;12.95;5.57;;;9.50;87.70;;;;;;5017331;28;20072;-77
2022/01/10 02:30:58;;;;;;;12.57;6.10;;;9.50;87.60;;;;;;5017157;28;20446;-77
2022/01/10 02:33:25;;;;;;;11.50;5.10;;;9.50;87.30;;;;;;5031717;28;20063;-77
2022/01/10 02:38:36;;;;;;;8.05;4.35;;;9.40;87.60;;;;;;5036401;28;20140;-77
2022/01/10 02:41:03;;;;;;;7.53;4.70;;;9.30;87.70;;;;;;5035757;28;20029;-77
2022/01/10 02:43:29;;;;;;;12.48;5.85;;;9.30;88.00;;;;;;5036764;28;20025;-77
2022/01/10 02:45:56;;;;;;;8.25;4.95;;;9.30;87.90;;;;;;5016952;28;20408;-77
2022/01/10 02:48:22;;;;;;;7.80;3.65;;;9.20;88.10;;;;;;5016590;28;20488;-76
2022/01/10 02:50:48;;;;;;;9.85;5.13;;;9.30;88.10;;;;;;5023634;28;20056;-76
2022/01/10 02:53:14;;;;;;;9.98;5.10;;;9.30;88.10;;;;;;5036797;28;20442;-77
2022/01/10 02:55:39;;;;;;;5.85;3.08;;;9.30;88.10;;;;;;5036533;28;20029;-77
2022/01/10 02:58:05;;;;;;;6.68;4.13;;;9.20;88.10;;;;;;5036515;28;20029;-77
2022/01/10 03:00:31;;;;;;;9.45;5.13;;;9.20;88.20;;;;;;5027337;28;20088;-77
2022/01/10 03:02:58;;;;;;;13.50;6.10;;;9.20;88.30;;;;;;5016702;28;20063;-77
2022/01/10 03:05:25;;;;;;;10.10;4.60;;;9.20;88.30;;;;;;5019763;28;20064;-77
2022/01/10 03:07:55;;;;;;;8.27;4.47;;;9.20;88.20;;;;;;5036133;28;20029;-77
2022/01/10 03:10:21;;;;;;;;;;;9.20;88.30;;;;;;5055426;28;20028;-77
2022/01/10 03:12:48;;;;;;;7.80;4.53;;;9.20;88.40;;;;;;5037022;28;20337;-77
2022/01/10 03:15:14;;;;;;;7.97;4.07;;;9.20;88.40;;;;;;5036066;28;20104;-77
2022/01/10 03:17:40;;;;;;;13.05;5.40;;;9.20;88.30;;;;;;5036385;28;20049;-77
2022/01/10 03:20:08;;;;;;;9.85;5.20;;;9.20;88.50;;;;;;5031092;28;20129;-76
2022/01/10 03:22:34;;;;;;;7.47;4.78;;;9.30;88.20;;;;;;5014909;28;20508;-76
2022/01/10 03:25:00;;;;;;;8.00;5.18;;;9.30;88.10;;;;;;5016217;28;20029;-76
2022/01/10 03:27:26;;;;;;;10.18;4.82;;;9.30;88.10;;;;;;5016184;28;20098;-77
2022/01/10 03:29:53;;;;;;;9.95;4.60;;;9.30;88.10;;;;;;5021691;28;20029;-76
2022/01/10 03:32:19;;;;;;;14.65;5.78;;;9.30;88.10;;;;;;5035724;28;20028;-76
2022/01/10 03:34:44;;;;;;;7.75;4.95;;;9.30;88.00;;;;;;5035752;28;20495;-77
2022/01/10 03:37:10;;;;;;;10.18;5.50;;;9.30;87.90;;;;;;5034140;28;20017;-76
2022/01/10 03:39:36;;;;;;;12.85;5.60;;;9.20;88.20;;;;;;5035764;28;20104;-77
2022/01/10 03:42:03;;;;;;;8.57;4.97;;;9.20;88.10;;;;;;5035736;28;20111;-75
2022/01/10 03:44:29;;;;;;;11.68;5.50;;;9.20;88.10;;;;;;5034992;28;20038;-75
2022/01/10 03:46:56;;;;;;;11.95;5.57;;;9.30;88.10;;;;;;5035260;28;20069;-75
2022/01/10 03:49:25;;;;;;;11.30;5.75;;;9.30;87.90;;;;;;5022158;28;20532;-75
2022/01/10 03:51:51;;;;;;;9.80;5.05;;;9.30;88.00;;;;;;5015755;28;20405;-75
2022/01/10 03:54:17;;;;;;;12.10;6.03;;;9.30;87.80;;;;;;5015740;28;20026;-75
2022/01/10 03:56:42;;;;;;;12.77;5.65;;;9.20;88.10;;;;;;5014731;28;20160;-75
2022/01/10 03:59:09;;;;;;;13.38;6.50;;;9.20;88.30;;;;;;5015784;28;20022;-75
2022/01/10 04:01:38;;;;;;;8.07;4.95;;;9.20;88.20;;;;;;5014320;28;20026;-75
2022/01/10 04:04:04;;;;;;;11.27;5.15;;;9.20;88.10;;;;;;5015552;28;20053;-76
2022/01/10 04:06:30;;;;;;;10.70;5.38;;;9.20;88.10;;;;;;5031043;28;20060;-76
2022/01/10 04:08:56;;;;;;;8.95;5.10;;;9.20;88.20;;;;;;5041397;28;20033;-76
2022/01/10 04:11:21;;;;;;;10.25;5.47;;;9.20;88.30;;;;;;5055076;28;20602;-76
2022/01/10 04:13:47;;;;;;;7.72;5.45;;;9.20;88.50;;;;;;5051036;28;20120;-76
2022/01/10 04:16:13;;;;;;;6.13;4.53;;;9.20;88.40;;;;;;5034934;28;20021;-75
2022/01/10 04:18:38;;;;;;;9.10;5.05;;;9.20;88.30;;;;;;5035185;28;20045;-75
2022/01/10 04:21:04;;;;;;;12.80;5.80;;;9.10;88.40;;;;;;5035184;28;20105;-75
2022/01/10 04:23:30;;;;;;;11.45;5.68;;;9.20;88.40;;;;;;5033679;28;20048;-76
2022/01/10 04:25:56;;;;;;;9.95;4.28;;;9.20;88.50;;;;;;5050301;28;20033;-76
2022/01/10 04:28:25;;;;;;;7.85;5.25;;;9.20;88.30;;;;;;5035028;28;20036;-75
2022/01/10 04:30:50;;;;;;;12.13;5.57;;;9.20;88.20;;;;;;5034200;28;20049;-75
2022/01/10 04:33:20;;;;;;;9.80;4.72;;;9.10;88.60;;;;;;5034844;28;20032;-75
2022/01/10 04:35:48;;;;;;;10.18;4.97;;;9.20;88.50;;;;;;5034915;28;20028;-76
2022/01/10 04:38:14;;;;;;;6.57;3.03;;;9.20;88.40;;;;;;5034913;28;20047;-75
2022/01/10 04:40:40;;;;;;;6.72;4.43;;;9.20;88.30;;;;;;5018151;28;20034;-75
2022/01/10 04:43:06;;;;;;;7.97;4.53;;;9.10;88.60;;;;;;5020402;28;20037;-75
2022/01/10 04:45:32;;;;;;;11.20;4.85;;;9.10;88.50;;;;;;5050352;28;20042;-75
2022/01/10 04:47:58;;;;;;;7.10;4.20;;;9.20;88.50;;;;;;5036539;28;20037;-75
2022/01/10 04:52:51;;;;;;;5.95;3.78;;;9.10;88.50;;;;;;5039078;28;20096;-75
2022/01/10 04:55:19;;;;;;;5.35;3.65;;;9.00;88.40;;;;;;5037769;28;20029;-75
2022/01/10 04:57:44;;;;;;;5.72;3.90;;;9.00;88.70;;;;;;5038739;28;20028;-75
2022/01/10 05:00:13;;;;;;;7.82;4.85;;;9.00;88.90;;;;;;5037328;28;20025;-75
2022/01/10 05:02:42;;;;;;;6.32;4.53;;;9.00;89.00;;;;;;5053717;28;20040;-75
2022/01/10 05:05:08;;;;;;;9.15;4.50;;;9.00;88.90;;;;;;5037335;28;20562;-75
2022/01/10 05:07:36;;;;;;;8.63;4.55;;;9.10;88.90;;;;;;5035865;28;20034;-76
2022/01/10 05:10:02;;;;;;;7.70;4.28;;;9.10;88.70;;;;;;5048909;28;20029;-75
2022/01/10 05:12:28;;;;;;;6.38;4.20;;;9.00;88.90;;;;;;5058421;28;20020;-75
2022/01/10 05:14:54;;;;;;;6.88;3.78;;;9.00;88.90;;;;;;5058446;28;20044;-75
2022/01/10 05:17:22;;;;;;;9.88;5.25;;;9.00;88.70;;;;;;5041204;28;20491;-75
2022/01/10 05:19:47;;;;;;;6.97;4.97;;;9.00;88.80;;;;;;5037187;28;20412;-76
2022/01/10 05:22:14;;;;;;;9.68;6.05;;;9.00;88.80;;;;;;5037968;28;20067;-75
2022/01/10 05:24:47;;;;;;;7.70;4.85;;;9.10;88.80;;;;;;5038324;28;20052;-75
2022/01/10 05:27:13;;;;;;;9.05;5.47;;;9.10;88.70;;;;;;5037170;28;20037;-75
2022/01/10 05:29:38;;;;;;;9.40;5.20;;;9.10;88.80;;;;;;5038109;28;20111;-75
2022/01/10 05:32:04;;;;;;;11.60;5.28;;;9.20;88.70;;;;;;5037972;28;20025;-75
2022/01/10 05:34:30;;;;;;;7.43;4.40;;;9.10;88.80;;;;;;5038161;28;20104;-75
2022/01/10 05:36:56;;;;;;;6.85;5.07;;;9.20;88.70;;;;;;5037078;28;20064;-75
2022/01/10 05:39:22;;;;;;;7.28;4.93;;;9.20;88.60;;;;;;5053570;28;20108;-75
2022/01/10 05:41:58;;;;;;;7.90;4.85;;;9.10;88.60;;;;;;5036595;28;20033;-75
2022/01/10 05:44:24;;;;;;;6.97;4.32;;;9.10;88.70;;;;;;5037901;28;20116;-75
2022/01/10 05:46:50;;;;;;;7.38;4.47;;;9.10;88.40;;;;;;5039632;28;20109;-76
2022/01/10 05:49:19;;;;;;;10.88;5.00;;;9.20;88.70;;;;;;5051344;28;20064;-75
2022/01/10 05:51:45;;;;;;;6.88;4.30;;;9.20;88.50;;;;;;5036023;28;20125;-75
2022/01/10 05:54:10;;;;;;;8.35;4.45;;;9.10;88.70;;;;;;5035924;28;20057;-76
2022/01/10 05:56:37;;;;;;;8.60;4.78;;;9.20;88.60;;;;;;5037442;28;20018;-78
2022/01/10 05:59:03;;;;;;;15.77;7.22;;;9.20;88.40;;;;;;5035047;28;20120;-78
2022/01/10 06:01:29;;;;;;;9.82;6.63;;;9.20;88.60;;;;;;5036203;28;20022;-81
2022/01/10 06:03:54;;;;;;;11.40;5.93;;;9.10;88.70;;;;;;5036692;28;20048;-78
2022/01/10 06:06:20;;;;;;;6.95;4.43;;;9.10;88.60;;;;;;5036069;28;20021;-78
2022/01/10 06:08:46;;;;;;;6.13;3.45;;;9.10;88.60;;;;;;5041400;28;20108;-78
2022/01/10 06:11:12;;;;;;;6.57;4.05;;;9.20;88.60;;;;;;5056803;28;20060;-78
2022/01/10 06:13:38;;;;;;;5.00;3.35;;;9.10;88.60;;;;;;5054775;28;20451;-83
2022/01/10 06:16:13;;;;;;;8.50;5.13;;;9.10;88.80;;;;;;5036674;28;20395;-83
2022/01/10 06:18:39;;;;;;;10.77;6.40;;;9.10;88.90;;;;;;5035076;28;20037;-79
2022/01/10 06:21:04;;;;;;;9.68;5.22;;;9.20;88.50;;;;;;5035730;28;20037;-78
2022/01/10 06:23:30;;;;;;;10.45;5.50;;;9.20;88.50;;;;;;5035274;28;20683;-78
2022/01/10 06:25:56;;;;;;;8.25;6.25;;;9.20;88.50;;;;;;5034962;28;20029;-78
2022/01/10 06:28:21;;;;;;;7.82;4.82;;;9.20;88.60;;;;;;5036448;28;20032;-78
2022/01/10 06:30:47;;;;;;;6.65;4.65;;;9.10;88.60;;;;;;5036272;28;20578;-78
2022/01/10 06:33:13;;;;;;;6.55;3.42;;;9.10;88.70;;;;;;5026451;28;20045;-77
2022/01/10 06:35:39;;;;;;;8.35;4.95;;;9.10;88.70;;;;;;5023996;28;20037;-78
2022/01/10 06:38:05;;;;;;;6.00;3.75;;;9.00;89.00;;;;;;5017538;28;20104;-77
2022/01/10 06:40:30;;;;;;;7.15;3.92;;;9.10;88.90;;;;;;5016643;28;20025;-76
2022/01/10 06:42:56;;;;;;;7.20;4.20;;;9.00;88.90;;;;;;5019575;28;20042;-75
2022/01/10 06:45:22;;;;;;;9.23;4.00;;;9.00;89.10;;;;;;5016392;28;20034;-76
2022/01/10 06:47:49;;;;;;;7.15;4.32;;;9.10;89.20;;;;;;5027747;28;20040;-78
2022/01/10 06:50:17;;;;;;;7.20;4.00;;;9.20;89.20;;;;;;5035783;28;20025;-74
2022/01/10 06:52:43;;;;;;;8.90;4.07;;;9.20;88.70;;;;;;5023801;28;20049;-76
2022/01/10 06:55:09;;;;;;;6.45;3.70;;;9.10;88.80;;;;;;5030040;28;20017;-76
2022/01/10 06:57:35;;;;;;;7.47;4.38;;;9.10;88.70;;;;;;5025786;28;20502;-76
2022/01/10 07:00:02;;;;;;;10.23;5.28;;;9.10;88.80;;;;;;5026319;28;20037;-76
2022/01/10 07:02:28;;;;;;;12.98;5.35;;;9.10;88.90;;;;;;5036019;28;20018;-77
2022/01/10 07:04:55;;;;;;;10.63;4.97;;;9.10;88.80;;;;;;5027435;28;20025;-77
2022/01/10 07:07:23;;;;;;;7.03;4.43;;;9.10;88.60;;;;;;5026304;28;20099;-78
2022/01/10 07:09:49;;;;;;;9.35;4.90;;;9.10;89.00;;;;;;5028604;28;20049;-77
2022/01/10 07:12:15;;;;;;;8.30;4.43;;;9.10;88.50;;;;;;5022457;28;20064;-79
2022/01/10 07:14:41;;;;;;;9.35;4.47;;;9.20;88.80;;;;;;5032860;28;20052;-82
2022/01/10 07:17:06;;;;;;;10.80;4.97;;;9.20;88.80;;;;;;5038888;28;20110;-79
2022/01/10 07:19:32;;;;;;;11.90;5.45;;;9.20;88.50;;;;;;5024407;28;20029;-80
2022/01/10 07:21:58;;;;;;;10.80;6.10;;;9.30;88.40;;;;;;5042162;28;20075;-79
2022/01/10 07:24:41;;;;;;;10.68;6.07;;;9.20;88.30;;;;;;5032129;28;20160;-82
2022/01/10 07:27:07;;;;;;;9.35;4.60;;;9.20;88.50;;;;;;5034861;28;20091;-86
2022/01/10 07:29:32;;;;;;;10.45;4.72;;;9.30;88.50;;;;;;5029830;28;20523;-81
2022/01/10 07:31:58;;;;;;;8.43;5.18;;;9.30;88.40;;;;;;5021071;28;20102;-81
2022/01/10 07:34:24;;;;;;;7.95;4.40;;;9.20;88.30;;;;;;5024865;28;20017;-81
